Time;durP1;ratioP1;P1;durP2;ratioP2;P2;SDS_P1;SDS_P2;PMS_P1;PMS_P2;Temp;Humidity;BMP_temperature;BMP_pressure;BME280_temperature;BME280_humidity;BME280_pressure;Samples;Min_cycle;Max_cycle;Signal;HPM_P1;HPM_P2
2023/10/29 00:02:04;;;;;;;;;;;;;;;20.84;45.01;94527.25;10480136;28;2637;-58
2023/10/29 00:07:05;;;;;;;;;;;;;;;20.82;44.94;94529.41;10484744;28;2589;-58
2023/10/29 00:12:06;;;;;;;;;;;;;;;20.79;44.67;94530.78;10481674;28;2686;-58
2023/10/29 00:17:06;;;;;;;;;;;;;;;20.78;44.77;94525.81;10482186;28;2558;-58
2023/10/29 00:22:06;;;;;;;;;;;;;;;20.78;44.62;94523.19;10471593;28;2483;-58
2023/10/29 00:27:06;;;;;;;;;;;;;;;20.75;44.83;94529.84;10478395;28;2539;-59
2023/10/29 00:32:07;;;;;;;;;;;;;;;20.73;44.82;94524.09;10484686;28;2753;-58
2023/10/29 00:37:07;;;;;;;;;;;;;;;20.72;44.56;94548.88;10465218;28;2690;-58
2023/10/29 00:42:09;;;;;;;;;;;;;;;20.73;44.71;94547.03;10469505;28;2930;-58
2023/10/29 00:47:10;;;;;;;;;;;;;;;20.70;44.82;94537.88;10478072;28;2646;-58
2023/10/29 00:52:10;;;;;;;;;;;;;;;20.68;44.86;94541.91;10479878;28;5216;-58
2023/10/29 00:57:10;;;;;;;;;;;;;;;20.67;44.61;94546.38;10464502;28;2568;-58
2023/10/29 01:02:10;;;;;;;;;;;;;;;20.65;44.69;94545.91;10442717;28;2715;-58
2023/10/29 01:07:11;;;;;;;;;;;;;;;20.64;44.85;94533.03;10443046;28;2618;-58
2023/10/29 01:12:15;;;;;;;;;;;;;;;20.63;44.80;94536.78;10473141;28;2635;-58
2023/10/29 01:17:16;;;;;;;;;;;;;;;20.61;44.88;94539.69;10479127;28;2705;-58
2023/10/29 01:22:19;;;;;;;;;;;;;;;20.60;44.52;94527.63;10475976;28;2619;-58
2023/10/29 01:27:20;;;;;;;;;;;;;;;20.61;44.71;94531.78;10478229;28;2623;-58
2023/10/29 01:32:21;;;;;;;;;;;;;;;20.60;44.65;94521.56;10476757;28;2851;-58
2023/10/29 01:37:21;;;;;;;;;;;;;;;20.57;44.74;94507.16;10475251;28;2585;-58
2023/10/29 01:42:21;;;;;;;;;;;;;;;20.55;44.59;94509.31;10479430;28;2503;-58
2023/10/29 01:47:21;;;;;;;;;;;;;;;20.54;44.83;94504.34;10482543;28;2685;-58
2023/10/29 01:52:22;;;;;;;;;;;;;;;20.53;44.86;94500.94;10472345;28;2599;-58
2023/10/29 01:57:22;;;;;;;;;;;;;;;20.52;44.76;94504.66;10478848;28;2547;-58
2023/10/29 02:02:22;;;;;;;;;;;;;;;20.52;44.65;94499.41;10476133;28;2591;-58
2023/10/29 02:07:22;;;;;;;;;;;;;;;20.51;44.77;94505.72;10466205;28;2590;-57
2023/10/29 02:12:23;;;;;;;;;;;;;;;20.49;44.82;94504.47;10476656;28;2710;-59
2023/10/29 02:17:25;;;;;;;;;;;;;;;20.47;44.58;94507.41;10477975;28;2628;-58
2023/10/29 02:22:25;;;;;;;;;;;;;;;20.47;44.66;94498.72;10480228;28;2634;-58
2023/10/29 02:27:25;;;;;;;;;;;;;;;20.47;44.63;94501.38;10479760;28;2599;-58
2023/10/29 02:32:28;;;;;;;;;;;;;;;20.46;44.61;94499.81;10479261;28;2642;-58
2023/10/29 02:37:28;;;;;;;;;;;;;;;20.42;44.68;94483.88;10485087;28;2567;-57
2023/10/29 02:42:29;;;;;;;;;;;;;;;20.42;44.63;94478.59;10483132;28;2626;-58
2023/10/29 02:47:29;;;;;;;;;;;;;;;20.42;44.67;94485.72;10489374;28;2555;-58
2023/10/29 02:52:31;;;;;;;;;;;;;;;20.40;44.50;94478.13;10478870;28;5414;-57
2023/10/29 02:57:32;;;;;;;;;;;;;;;20.40;44.50;94477.34;10486610;28;2662;-58
2023/10/29 03:02:32;;;;;;;;;;;;;;;20.39;44.48;94479.19;10474466;28;2729;-58
2023/10/29 03:07:32;;;;;;;;;;;;;;;20.37;44.63;94473.44;10485590;28;2812;-58
2023/10/29 03:12:32;;;;;;;;;;;;;;;20.37;44.66;94473.44;10495393;28;2579;-57
2023/10/29 03:17:33;;;;;;;;;;;;;;;20.37;44.51;94464.78;10490855;28;2542;-59
2023/10/29 03:22:33;;;;;;;;;;;;;;;20.36;44.31;94461.34;10484087;28;2937;-59
2023/10/29 03:27:33;;;;;;;;;;;;;;;20.34;44.48;94460.88;10478788;28;2618;-59
2023/10/29 03:32:34;;;;;;;;;;;;;;;20.33;44.47;94461.97;10481025;28;2687;-59
2023/10/29 03:37:34;;;;;;;;;;;;;;;20.32;44.46;94457.78;10484041;28;2659;-58
2023/10/29 03:42:34;;;;;;;;;;;;;;;20.32;44.21;94464.91;10480168;28;2568;-59
2023/10/29 03:47:34;;;;;;;;;;;;;;;20.31;44.33;94474.66;10466209;28;2655;-58
2023/10/29 03:52:35;;;;;;;;;;;;;;;20.30;44.50;94478.34;10480454;28;5272;-58
2023/10/29 03:57:35;;;;;;;;;;;;;;;20.30;44.42;94459.19;10490708;28;2596;-58
2023/10/29 04:02:35;;;;;;;;;;;;;;;20.29;44.36;94445.25;10487911;28;2540;-57
2023/10/29 04:07:38;;;;;;;;;;;;;;;20.27;44.42;94434.25;10484767;28;2580;-58
2023/10/29 04:12:39;;;;;;;;;;;;;;;20.26;44.37;94428.19;10474976;28;2603;-58
2023/10/29 04:17:39;;;;;;;;;;;;;;;20.26;44.28;94427.41;10475112;28;2621;-58
2023/10/29 04:22:41;;;;;;;;;;;;;;;20.25;44.43;94425.88;10475872;28;2640;-56
2023/10/29 04:27:41;;;;;;;;;;;;;;;20.25;44.04;94420.63;10474913;28;2618;-58
2023/10/29 04:32:41;;;;;;;;;;;;;;;20.23;44.16;94425.41;10482070;28;2513;-58
2023/10/29 04:37:41;;;;;;;;;;;;;;;20.22;44.45;94419.34;10480313;28;2637;-58
2023/10/29 04:42:42;;;;;;;;;;;;;;;20.22;44.33;94410.69;10479825;28;2629;-58
2023/10/29 04:47:42;;;;;;;;;;;;;;;20.22;44.09;94415.94;10459950;28;5217;-58
2023/10/29 04:52:42;;;;;;;;;;;;;;;20.20;44.43;94410.22;10475652;28;2623;-58
2023/10/29 04:57:42;;;;;;;;;;;;;;;20.19;44.32;94419.97;10482280;28;2590;-57
2023/10/29 05:02:43;;;;;;;;;;;;;;;20.18;44.22;94410.50;10469683;28;2674;-58
2023/10/29 05:07:44;;;;;;;;;;;;;;;20.18;44.29;94405.22;10481050;28;2607;-58
2023/10/29 05:12:45;;;;;;;;;;;;;;;20.20;44.42;94394.41;10449549;28;2565;-58
2023/10/29 05:17:45;;;;;;;;;;;;;;;20.27;44.02;94384.25;10479375;28;2603;-58
2023/10/29 05:22:45;;;;;;;;;;;;;;;20.32;44.17;94381.47;10468185;28;2641;-58
2023/10/29 05:27:49;;;;;;;;;;;;;;;20.38;43.65;94371.59;10473208;28;2883;-57
2023/10/29 05:32:50;;;;;;;;;;;;;;;20.42;43.49;94378.59;10475518;28;2652;-58
2023/10/29 05:37:50;;;;;;;;;;;;;;;20.47;43.66;94375.00;10480351;28;3708;-58
2023/10/29 05:42:50;;;;;;;;;;;;;;;20.51;43.70;94389.91;10484648;28;2780;-57
2023/10/29 05:47:51;;;;;;;;;;;;;;;20.56;43.66;94400.31;10480735;28;5145;-56
2023/10/29 05:52:51;;;;;;;;;;;;;;;20.63;43.29;94413.03;10479340;28;2594;-58
2023/10/29 05:57:52;;;;;;;;;;;;;;;20.67;43.60;94403.44;10469619;28;2594;-58
2023/10/29 06:02:52;;;;;;;;;;;;;;;20.70;43.66;94400.19;10456162;28;2512;-57
2023/10/29 06:07:52;;;;;;;;;;;;;;;20.74;43.19;94406.38;10470008;28;2596;-57
2023/10/29 06:12:52;;;;;;;;;;;;;;;20.79;43.25;94414.16;10474128;28;2583;-57
2023/10/29 06:17:53;;;;;;;;;;;;;;;20.82;43.20;94418.78;10470985;28;2623;-54
2023/10/29 06:22:53;;;;;;;;;;;;;;;20.90;43.16;94405.66;10471394;28;2622;-58
2023/10/29 06:27:56;;;;;;;;;;;;;;;20.92;42.75;94407.97;10478612;28;2633;-55
2023/10/29 06:32:58;;;;;;;;;;;;;;;20.90;42.96;94403.00;10476372;28;2651;-58
2023/10/29 06:37:58;;;;;;;;;;;;;;;20.93;42.89;94399.78;10475195;28;2551;-58
2023/10/29 06:42:59;;;;;;;;;;;;;;;20.93;42.81;94405.03;10473194;28;2547;-57
2023/10/29 06:47:59;;;;;;;;;;;;;;;21.02;42.83;94416.38;10478441;28;5108;-55
2023/10/29 06:52:59;;;;;;;;;;;;;;;21.04;42.80;94411.56;10471268;28;2636;-56
2023/10/29 06:58:00;;;;;;;;;;;;;;;21.10;42.38;94414.06;10479195;28;2599;-56
2023/10/29 07:03:00;;;;;;;;;;;;;;;21.10;42.31;94424.63;10460291;28;2573;-57
2023/10/29 07:08:00;;;;;;;;;;;;;;;21.18;41.44;94418.59;10477429;28;2559;-57
2023/10/29 07:13:00;;;;;;;;;;;;;;;21.19;41.52;94420.91;10456582;28;2551;-56
2023/10/29 07:18:01;;;;;;;;;;;;;;;21.12;42.21;94407.44;10454128;28;2629;-56
2023/10/29 07:23:01;;;;;;;;;;;;;;;21.14;42.46;94415.78;10479526;28;2558;-57
2023/10/29 07:28:01;;;;;;;;;;;;;;;21.24;42.19;94419.97;10485232;28;2651;-57
2023/10/29 07:33:02;;;;;;;;;;;;;;;21.20;42.95;94419.03;10463768;28;2763;-58
2023/10/29 07:38:02;;;;;;;;;;;;;;;21.25;43.13;94418.88;10465820;28;2662;-58
2023/10/29 07:43:03;;;;;;;;;;;;;;;21.34;42.77;94433.63;10481160;28;2530;-58
2023/10/29 07:48:04;;;;;;;;;;;;;;;21.38;42.96;94450.38;10486009;28;5076;-56
2023/10/29 07:53:04;;;;;;;;;;;;;;;21.33;43.08;94450.53;10460627;28;2702;-58
2023/10/29 07:58:05;;;;;;;;;;;;;;;21.41;42.95;94451.63;10476469;28;2598;-58
2023/10/29 08:03:06;;;;;;;;;;;;;;;21.37;43.20;94463.88;10464799;28;2571;-56
2023/10/29 08:08:06;;;;;;;;;;;;;;;21.37;43.10;94458.59;10479013;28;2519;-58
2023/10/29 08:13:09;;;;;;;;;;;;;;;21.36;43.45;94464.94;10472371;28;2523;-57
2023/10/29 08:18:10;;;;;;;;;;;;;;;21.38;43.08;94468.84;10477752;28;2572;-58
2023/10/29 08:23:10;;;;;;;;;;;;;;;21.38;43.10;94466.19;10476993;28;2677;-57
2023/10/29 08:28:10;;;;;;;;;;;;;;;21.38;43.19;94465.41;10484443;28;2682;-57
2023/10/29 08:33:11;;;;;;;;;;;;;;;21.38;43.40;94463.56;10475369;28;2558;-57
2023/10/29 08:38:11;;;;;;;;;;;;;;;21.39;43.36;94477.53;10474672;28;2602;-57
2023/10/29 08:43:11;;;;;;;;;;;;;;;21.37;43.49;94477.81;10476526;28;2610;-58
2023/10/29 08:48:12;;;;;;;;;;;;;;;21.38;43.68;94484.66;10479653;28;4800;-58
2023/10/29 08:53:12;;;;;;;;;;;;;;;21.37;43.49;94482.34;10479868;28;2420;-57
2023/10/29 08:58:12;;;;;;;;;;;;;;;21.36;43.78;94483.41;10476918;28;1917;-56
2023/10/29 09:03:15;;;;;;;;;;;;;;;21.36;43.72;94483.41;10476212;28;1950;-57
2023/10/29 09:08:16;;;;;;;;;;;;;;;21.34;43.77;94483.72;10483799;28;1974;-56
2023/10/29 09:13:19;;;;;;;;;;;;;;;21.34;43.48;94488.22;10478236;28;1572;-56
2023/10/29 09:18:19;;;;;;;;;;;;;;;21.32;43.70;94490.38;10483397;28;1895;-55
2023/10/29 09:23:19;;;;;;;;;;;;;;;21.32;43.55;94490.38;10472240;28;1924;-58
2023/10/29 09:28:20;;;;;;;;;;;;;;;21.29;43.97;94491.00;10475236;28;1847;-58
2023/10/29 09:33:21;;;;;;;;;;;;;;;21.25;44.96;94492.66;10476250;28;1483;-58
2023/10/29 09:38:21;;;;;;;;;;;;;;;21.25;44.95;94482.91;10478500;28;1906;-57
2023/10/29 09:43:23;;;;;;;;;;;;;;;21.22;45.66;94474.84;10478371;28;2672;-58
2023/10/29 09:48:23;;;;;;;;;;;;;;;21.24;45.75;94470.84;10469993;28;4637;-58
2023/10/29 09:53:24;;;;;;;;;;;;;;;21.25;45.64;94468.94;10477430;28;1492;-58
2023/10/29 09:58:26;;;;;;;;;;;;;;;21.26;45.82;94473.16;10500561;28;1971;-57
2023/10/29 10:03:26;;;;;;;;;;;;;;;21.24;45.84;94462.94;10480897;28;2513;-58
2023/10/29 10:08:27;;;;;;;;;;;;;;;21.24;45.59;94470.06;10472826;28;2657;-60
2023/10/29 10:13:37;;;;;;;;;;;;;;;21.21;45.67;94463.53;10457737;28;2981;-58
2023/10/29 10:18:50;;;;;;;;;;;;;;;21.24;46.05;94465.56;10470369;28;2543;-58
2023/10/29 10:23:51;;;;;;;;;;;;;;;21.23;45.84;94466.63;10464327;28;2590;-58
2023/10/29 10:28:55;;;;;;;;;;;;;;;21.25;45.63;94458.41;10455808;28;2748;-60
2023/10/29 10:34:08;;;;;;;;;;;;;;;21.24;46.50;94459.50;10470260;28;2711;-59
2023/10/29 10:39:08;;;;;;;;;;;;;;;21.26;45.87;94459.97;10466595;28;2590;-59
2023/10/29 10:44:10;;;;;;;;;;;;;;;21.22;46.32;94459.03;10476532;28;2995;-59
2023/10/29 10:49:12;;;;;;;;;;;;;;;21.21;46.28;94453.00;10469962;28;4688;-59
2023/10/29 10:54:12;;;;;;;;;;;;;;;21.20;46.55;94446.19;10469999;28;2609;-58
2023/10/29 10:59:13;;;;;;;;;;;;;;;21.18;46.70;94443.09;10470979;28;2678;-59
2023/10/29 11:04:14;;;;;;;;;;;;;;;21.17;46.40;94435.47;10480838;28;2642;-59
2023/10/29 11:09:17;;;;;;;;;;;;;;;21.15;47.29;94430.50;10481941;28;2679;-60
2023/10/29 11:14:17;;;;;;;;;;;;;;;21.16;47.47;94424.16;10483256;28;2539;-58
2023/10/29 11:19:33;;;;;;;;;;;;;;;21.17;47.41;94427.56;10483376;28;2553;-61
2023/10/29 11:24:33;;;;;;;;;;;;;;;21.19;47.47;94438.56;10482380;28;2641;-58
2023/10/29 11:29:43;;;;;;;;;;;;;;;21.16;46.42;94439.97;10480834;28;2728;-59
2023/10/29 11:34:43;;;;;;;;;;;;;;;21.13;46.52;94435.31;10470315;28;2623;-60
2023/10/29 11:39:45;;;;;;;;;;;;;;;21.12;46.67;94427.72;10490400;28;2591;-59
2023/10/29 11:44:45;;;;;;;;;;;;;;;21.10;46.98;94424.63;10467486;28;2622;-59
2023/10/29 11:49:45;;;;;;;;;;;;;;;21.11;46.72;94420.88;10471635;28;4663;-60
2023/10/29 11:54:46;;;;;;;;;;;;;;;21.08;46.91;94409.88;10484935;28;2621;-60
2023/10/29 11:59:53;;;;;;;;;;;;;;;21.09;47.33;94405.41;10472952;28;2630;-59
2023/10/29 12:04:54;;;;;;;;;;;;;;;21.08;46.67;94418.88;10477966;28;2551;-60
2023/10/29 12:10:00;;;;;;;;;;;;;;;21.06;47.17;94411.28;10474169;28;2544;-60
2023/10/29 12:15:01;;;;;;;;;;;;;;;21.06;47.14;94406.03;10469873;28;2739;-59
2023/10/29 12:20:01;;;;;;;;;;;;;;;21.07;47.13;94412.81;10472944;28;2686;-59
2023/10/29 12:25:02;;;;;;;;;;;;;;;21.05;47.29;94418.41;10475778;28;2611;-59
2023/10/29 12:30:03;;;;;;;;;;;;;;;21.04;46.65;94410.81;10476690;28;2602;-59
2023/10/29 12:35:03;;;;;;;;;;;;;;;21.02;46.02;94397.16;10453768;28;2991;-59
2023/10/29 12:40:05;;;;;;;;;;;;;;;20.99;46.10;94395.91;10480795;28;2725;-59
2023/10/29 12:45:08;;;;;;;;;;;;;;;20.98;45.65;94391.72;10477814;28;2556;-59
2023/10/29 12:50:09;;;;;;;;;;;;;;;20.98;45.31;94394.34;10474855;28;4625;-59
2023/10/29 12:55:10;;;;;;;;;;;;;;;20.98;45.50;94399.63;10477328;28;2535;-59
2023/10/29 13:00:12;;;;;;;;;;;;;;;21.00;45.81;94396.66;10474300;28;2788;-59
2023/10/29 13:05:13;;;;;;;;;;;;;;;21.05;46.27;94391.28;10478060;28;2641;-59
2023/10/29 13:10:13;;;;;;;;;;;;;;;21.09;46.45;94400.13;10459904;28;2538;-59
2023/10/29 13:15:13;;;;;;;;;;;;;;;21.10;46.30;94395.63;10477470;28;2656;-58
2023/10/29 13:20:14;;;;;;;;;;;;;;;21.08;46.40;94396.72;10465052;28;2617;-59
2023/10/29 13:25:14;;;;;;;;;;;;;;;21.08;46.23;94405.72;10470435;28;2566;-60
2023/10/29 13:30:14;;;;;;;;;;;;;;;21.03;46.71;94407.41;10480121;28;2539;-59
2023/10/29 13:35:16;;;;;;;;;;;;;;;21.00;46.80;94415.88;10475582;28;2678;-59
2023/10/29 13:40:18;;;;;;;;;;;;;;;21.00;46.51;94407.97;10481487;28;3006;-59
2023/10/29 13:45:18;;;;;;;;;;;;;;;21.00;46.67;94394.03;10474118;28;2575;-59
2023/10/29 13:50:19;;;;;;;;;;;;;;;20.98;46.44;94386.44;10453636;28;4617;-59
2023/10/29 13:55:23;;;;;;;;;;;;;;;20.99;46.24;94384.59;10478426;28;2768;-59
2023/10/29 14:00:25;;;;;;;;;;;;;;;20.97;46.49;94389.38;10472024;28;2592;-59
2023/10/29 14:05:27;;;;;;;;;;;;;;;20.95;46.41;94387.06;10474223;28;2696;-60
2023/10/29 14:10:27;;;;;;;;;;;;;;;20.93;46.34;94383.97;10476034;28;2670;-59
2023/10/29 14:15:27;;;;;;;;;;;;;;;20.92;46.80;94386.88;10475313;28;2565;-59
2023/10/29 14:20:27;;;;;;;;;;;;;;;20.91;46.65;94378.25;10473919;28;2595;-59
2023/10/29 14:25:28;;;;;;;;;;;;;;;20.91;46.44;94374.81;10483194;28;2622;-60
2023/10/29 14:30:28;;;;;;;;;;;;;;;20.87;46.51;94358.88;10469679;28;2532;-58
2023/10/29 14:35:28;;;;;;;;;;;;;;;20.86;46.65;94356.50;10477290;28;2702;-59
2023/10/29 14:40:29;;;;;;;;;;;;;;;20.87;46.33;94373.88;10488056;28;2535;-59
2023/10/29 14:45:29;;;;;;;;;;;;;;;20.87;46.24;94366.75;10482261;28;2643;-59
2023/10/29 14:50:30;;;;;;;;;;;;;;;20.90;46.10;94362.72;10449698;28;4684;-60
2023/10/29 14:55:30;;;;;;;;;;;;;;;20.95;46.16;94354.69;10478362;28;2718;-59
2023/10/29 15:00:30;;;;;;;;;;;;;;;20.96;46.19;94346.47;10467163;28;2632;-59
2023/10/29 15:05:31;;;;;;;;;;;;;;;21.00;45.81;94344.75;10479920;28;2532;-59
2023/10/29 15:10:31;;;;;;;;;;;;;;;21.03;45.98;94343.41;10489309;28;2764;-59
2023/10/29 15:15:32;;;;;;;;;;;;;;;21.08;45.46;94327.44;10484928;28;2665;-59
2023/10/29 15:20:32;;;;;;;;;;;;;;;21.08;45.82;94321.41;10476439;28;2648;-58
2023/10/29 15:25:33;;;;;;;;;;;;;;;21.11;45.45;94320.75;10482810;28;2647;-59
2023/10/29 15:30:33;;;;;;;;;;;;;;;21.15;45.94;94332.22;10457627;28;2602;-59
2023/10/29 15:35:35;;;;;;;;;;;;;;;21.18;45.23;94323.72;10463237;28;2639;-59
2023/10/29 15:40:36;;;;;;;;;;;;;;;21.19;45.47;94317.34;10467453;28;2563;-59
2023/10/29 15:45:38;;;;;;;;;;;;;;;21.22;45.57;94324.66;10479678;28;2616;-59
2023/10/29 15:50:38;;;;;;;;;;;;;;;21.28;45.44;94320.75;10457111;28;4677;-58
2023/10/29 15:55:38;;;;;;;;;;;;;;;21.33;45.32;94317.97;10475807;28;2657;-58
2023/10/29 16:00:38;;;;;;;;;;;;;;;21.37;45.17;94308.34;10474669;28;2523;-59
2023/10/29 16:05:38;;;;;;;;;;;;;;;21.46;45.23;94312.53;10470374;28;2666;-59
2023/10/29 16:10:39;;;;;;;;;;;;;;;21.52;45.41;94313.13;10471010;28;2567;-59
2023/10/29 16:15:39;;;;;;;;;;;;;;;21.67;45.09;94312.63;10467092;28;2586;-58
2023/10/29 16:20:41;;;;;;;;;;;;;;;21.71;44.86;94309.06;10481982;28;2021;-55
2023/10/29 16:25:41;;;;;;;;;;;;;;;21.76;44.50;94306.22;10467909;28;1513;-56
2023/10/29 16:30:42;;;;;;;;;;;;;;;21.80;44.51;94295.84;10481529;28;1574;-59
2023/10/29 16:35:42;;;;;;;;;;;;;;;21.82;44.17;94294.44;10478947;28;2020;-59
2023/10/29 16:40:42;;;;;;;;;;;;;;;21.85;43.99;94290.41;10488515;28;1491;-59
2023/10/29 16:45:44;;;;;;;;;;;;;;;21.88;43.94;94297.72;10483530;28;1441;-57
2023/10/29 16:50:44;;;;;;;;;;;;;;;21.92;43.61;94308.41;10473482;28;4864;-59
2023/10/29 16:55:45;;;;;;;;;;;;;;;21.95;43.42;94313.06;10481771;28;1946;-57
2023/10/29 17:00:45;;;;;;;;;;;;;;;21.97;43.31;94324.81;10464140;28;1471;-57
2023/10/29 17:05:47;;;;;;;;;;;;;;;22.02;43.52;94329.16;10463123;28;1743;-56
2023/10/29 17:10:47;;;;;;;;;;;;;;;22.02;43.32;94334.44;10470466;28;2232;-58
2023/10/29 17:15:55;;;;;;;;;;;;;;;22.04;43.71;94337.53;10476349;28;1956;-57
2023/10/29 17:20:56;;;;;;;;;;;;;;;22.05;44.07;94342.47;10474260;28;1478;-55
2023/10/29 17:25:57;;;;;;;;;;;;;;;22.08;44.13;94344.50;10461503;28;2011;-57
2023/10/29 17:30:57;;;;;;;;;;;;;;;22.13;44.18;94357.53;10473827;28;1440;-58
2023/10/29 17:35:57;;;;;;;;;;;;;;;22.13;43.89;94362.03;10479945;28;1910;-58
2023/10/29 17:40:58;;;;;;;;;;;;;;;22.16;43.70;94370.09;10426098;28;1597;-58
2023/10/29 17:45:58;;;;;;;;;;;;;;;22.20;43.41;94391.34;10483704;28;1484;-58
2023/10/29 17:50:59;;;;;;;;;;;;;;;22.20;43.04;94397.38;10470004;28;4653;-57
2023/10/29 17:56:00;;;;;;;;;;;;;;;22.19;43.12;94409.06;10479893;28;1969;-58
2023/10/29 18:01:00;;;;;;;;;;;;;;;22.20;43.45;94410.59;10481787;28;1386;-57
2023/10/29 18:06:09;;;;;;;;;;;;;;;22.20;43.53;94401.88;10455566;28;1659;-58
2023/10/29 18:11:11;;;;;;;;;;;;;;;22.19;43.26;94413.56;10483326;28;2410;-58
2023/10/29 18:16:11;;;;;;;;;;;;;;;22.19;43.91;94424.09;10462212;28;1942;-57
2023/10/29 18:21:13;;;;;;;;;;;;;;;22.17;43.63;94428.94;10455696;28;2642;-59
2023/10/29 18:26:16;;;;;;;;;;;;;;;22.23;43.81;94433.72;10471852;28;2572;-60
2023/10/29 18:31:16;;;;;;;;;;;;;;;22.19;44.91;94435.44;10473549;28;2524;-59
2023/10/29 18:36:16;;;;;;;;;;;;;;;22.22;44.71;94434.81;10476016;28;2602;-58
2023/10/29 18:41:18;;;;;;;;;;;;;;;22.23;44.64;94436.38;10445027;28;2571;-57
2023/10/29 18:46:18;;;;;;;;;;;;;;;22.13;45.13;94471.00;10471960;28;2523;-55
2023/10/29 18:51:19;;;;;;;;;;;;;;;22.16;45.21;94480.94;10472827;28;4676;-56
2023/10/29 18:56:21;;;;;;;;;;;;;;;22.14;45.40;94501.59;10473685;28;2621;-57
2023/10/29 19:01:21;;;;;;;;;;;;;;;22.14;45.31;94512.13;10475268;28;2625;-58
2023/10/29 19:06:22;;;;;;;;;;;;;;;22.09;45.09;94517.56;10473488;28;2539;-57
2023/10/29 19:11:26;;;;;;;;;;;;;;;22.05;45.76;94532.47;10479090;28;2048;-56
2023/10/29 19:16:26;;;;;;;;;;;;;;;22.05;45.50;94535.09;10475757;28;1914;-57
2023/10/29 19:21:27;;;;;;;;;;;;;;;22.02;45.37;94538.38;10459405;28;1797;-55
2023/10/29 19:26:27;;;;;;;;;;;;;;;21.97;45.79;94546.44;10484282;28;1969;-54
2023/10/29 19:31:28;;;;;;;;;;;;;;;21.95;45.64;94550.50;10485114;28;1471;-55
2023/10/29 19:36:28;;;;;;;;;;;;;;;21.98;45.46;94555.94;10469035;28;2551;-50
2023/10/29 19:41:28;;;;;;;;;;;;;;;21.93;45.64;94563.97;10485224;28;2577;-54
2023/10/29 19:46:31;;;;;;;;;;;;;;;21.92;45.73;94564.31;10487519;28;1482;-54
2023/10/29 19:51:31;;;;;;;;;;;;;;;21.90;45.78;94574.38;10486154;28;4538;-56
2023/10/29 19:56:31;;;;;;;;;;;;;;;21.88;45.54;94579.97;10490658;28;1906;-56
2023/10/29 20:01:31;;;;;;;;;;;;;;;21.88;45.54;94583.38;10470726;28;2520;-55
2023/10/29 20:06:32;;;;;;;;;;;;;;;21.87;45.54;94591.59;10484956;28;1762;-54
2023/10/29 20:11:32;;;;;;;;;;;;;;;21.83;45.13;94595.94;10483848;28;1757;-55
2023/10/29 20:16:32;;;;;;;;;;;;;;;21.81;45.22;94600.72;10483554;28;1910;-56
2023/10/29 20:21:33;;;;;;;;;;;;;;;21.79;45.64;94600.25;10470981;28;1854;-55
2023/10/29 20:26:33;;;;;;;;;;;;;;;21.78;45.48;94604.75;10465353;28;2635;-54
2023/10/29 20:31:33;;;;;;;;;;;;;;;21.75;45.77;94615.16;10480709;28;2641;-56
2023/10/29 20:36:33;;;;;;;;;;;;;;;21.72;45.65;94615.78;10479681;28;2658;-55
2023/10/29 20:41:35;;;;;;;;;;;;;;;21.71;45.45;94614.22;10475916;28;2602;-56
2023/10/29 20:46:35;;;;;;;;;;;;;;;21.70;45.42;94620.59;10457965;28;2579;-56
2023/10/29 20:51:36;;;;;;;;;;;;;;;21.64;45.61;94627.06;10472425;28;2582;-57
2023/10/29 20:56:36;;;;;;;;;;;;;;;21.61;45.67;94630.31;10460914;28;2570;-55
2023/10/29 21:01:36;;;;;;;;;;;;;;;21.55;45.36;94631.56;10474877;28;2986;-54
2023/10/29 21:06:37;;;;;;;;;;;;;;;21.49;45.50;94638.84;10473616;28;2578;-55
2023/10/29 21:11:37;;;;;;;;;;;;;;;21.47;45.01;94629.66;10462244;28;2646;-56
2023/10/29 21:16:37;;;;;;;;;;;;;;;21.43;45.32;94636.63;10477120;28;2618;-58
2023/10/29 21:21:37;;;;;;;;;;;;;;;21.39;45.84;94640.97;10475285;28;2634;-56
2023/10/29 21:26:38;;;;;;;;;;;;;;;21.38;44.96;94642.03;10479662;28;2638;-56
2023/10/29 21:31:38;;;;;;;;;;;;;;;21.35;45.22;94653.19;10473098;28;2570;-57
2023/10/29 21:36:38;;;;;;;;;;;;;;;21.32;45.29;94669.59;10469076;28;2632;-57
2023/10/29 21:41:39;;;;;;;;;;;;;;;21.31;45.24;94668.06;10478829;28;2764;-56
2023/10/29 21:46:39;;;;;;;;;;;;;;;21.29;46.06;94671.00;10469414;28;2599;-55
2023/10/29 21:51:39;;;;;;;;;;;;;;;21.28;46.41;94672.09;10475922;28;4660;-56
2023/10/29 21:56:39;;;;;;;;;;;;;;;21.27;46.63;94667.13;10470478;28;2575;-55
2023/10/29 22:01:40;;;;;;;;;;;;;;;21.29;46.31;94676.25;10463572;28;2576;-55
2023/10/29 22:06:40;;;;;;;;;;;;;;;21.29;46.69;94670.22;10478349;28;2742;-57
2023/10/29 22:11:40;;;;;;;;;;;;;;;21.27;47.38;94677.66;10471269;28;2568;-57
2023/10/29 22:16:43;;;;;;;;;;;;;;;21.26;47.05;94684.78;10475142;28;2748;-56
2023/10/29 22:21:43;;;;;;;;;;;;;;;21.26;47.28;94692.69;10460198;28;2652;-56
2023/10/29 22:26:43;;;;;;;;;;;;;;;21.26;47.24;94702.44;10471290;28;2668;-56
2023/10/29 22:31:43;;;;;;;;;;;;;;;21.24;47.20;94699.34;10480332;28;2572;-56
2023/10/29 22:36:44;;;;;;;;;;;;;;;21.23;47.83;94703.81;10475845;28;3003;-55
2023/10/29 22:41:44;;;;;;;;;;;;;;;21.23;48.25;94713.59;10481325;28;2602;-57
2023/10/29 22:46:44;;;;;;;;;;;;;;;21.22;47.41;94715.47;10468006;28;2563;-55
2023/10/29 22:51:45;;;;;;;;;;;;;;;21.20;47.79;94711.56;10467823;28;2592;-57
2023/10/29 22:56:46;;;;;;;;;;;;;;;21.19;47.63;94707.38;10478790;28;2577;-56
2023/10/29 23:01:46;;;;;;;;;;;;;;;21.17;47.69;94710.31;10477720;28;2626;-56
2023/10/29 23:06:47;;;;;;;;;;;;;;;21.15;47.57;94701.13;10480040;28;2643;-57
2023/10/29 23:11:47;;;;;;;;;;;;;;;21.15;47.85;94706.41;10481965;28;2687;-55
2023/10/29 23:16:47;;;;;;;;;;;;;;;21.13;47.90;94703.31;10478068;28;2671;-56
2023/10/29 23:21:47;;;;;;;;;;;;;;;21.12;47.79;94707.03;10487673;28;2618;-55
2023/10/29 23:26:48;;;;;;;;;;;;;;;21.12;47.59;94713.09;10476376;28;2596;-56
2023/10/29 23:31:48;;;;;;;;;;;;;;;21.09;47.71;94703.13;10482918;28;2560;-57
2023/10/29 23:36:48;;;;;;;;;;;;;;;21.08;47.69;94707.63;10467095;28;2588;-57
2023/10/29 23:41:48;;;;;;;;;;;;;;;21.06;47.55;94703.75;10481379;28;2679;-56
2023/10/29 23:46:49;;;;;;;;;;;;;;;21.06;47.55;94707.16;10480719;28;2703;-57
2023/10/29 23:51:49;;;;;;;;;;;;;;;21.04;47.52;94698.75;10481111;28;4684;-57
2023/10/29 23:56:49;;;;;;;;;;;;;;;21.02;47.46;94700.91;10479922;28;2584;-57
